Allingtown, Connecticut
Current Conditions -  °F | °C
As of 5:53 AM on Sunday 23 Nov 2014 (Local Time) from KHVN Reporting Station
Broken Clouds Broken Clouds  
Wind Chill: 42°   Ceiling: 8500
Heat Index: 47°   Visibility: 10mi
Dew Point: 28°   Wind: 12mph
Humidity: 48%   Direction: 230°SW
Pressure: 30.17"   Gusts: NA
Location:  41.2716°N, 72.9666°W
Report Text: KHVN 231053Z 23010KT 10SM BKN085 BKN110 08/M02 A3017 RMK AO2 SLP215 T00831022
Loading
Personal Weather Stations






























Interactive Weather Map New forecast layout! Learn more

10-Day Weather Forecast

Advertisements
Track Severe Weather on mobile